Ana Sayfa
METAR-TAF:

METAR-TAF

Havaalanları :

Tulça, Romanya

Enlem: 45-11N, Boylam: 028-49E, yükseklik: 4 m

Güncel hava durumu gözlemi

Rapor saat 01:00 UTC de 29 dakika önce yapıldı.
Rüzgar güneydoğudan 7 kt
Sıcaklık 4°C
Nem 81%
Basınç 1003 hPa
Görüş mesafesi 10 km veya daha fazla

METAR: LRTC 260100Z AUTO 14007KT 9999 NCD 04/01 Q1003

Saat: 03:29 (01:29 UTC)

Tahmin

Rapor saat 11:00 UTC de 14 saat ve 29 dakika önce yapıldı.
Ayın 25'si saat 12 UTC'den ayın 25'si saat 21 UTC'ye kadar geçerli Tahmin
Rüzgar güney/güneybatıdan 12 kt
Görüş mesafesi 10 km veya daha fazla
1500 m altında bulut yok ve kümülonimbus yok
Geçici
ayın 25'si saat 12 UTC'den ayın 25'si saat 14 UTC'ye kadar
Rüzgar güney/güneybatıdan 16 kt ve 27 kt'a kadar ani rüzgarlar

TAF: LRTC 251100Z 2512/2521 20012KT CAVOK TEMPO 2512/2514 21016G27KT

4.000'den fazla havaalanı için hava durumu gözlemleri ve tahminleri (METAR ve TAF raporları).

Kullanılabilir istasyonlar harita üzerinde sarı ve kırmızı noktalarla gösterilir.

İstasyonun adını görmek için fareyi noktanın üzerinde gezdirin.

Sonrasında hava gözlem ve tahminlerini görmek için tıklayın.

Haritayı değiştirmek için: yaklaştırmak için siyah artı işaretli yeşil düğmeye ve uzaklaştırmak için de eksi işaretli düğmeye hızla tıklayın; bitişik haritalar için yeşil okları kullanın.


METAR-TAF: